createdAt,value
2018-12-31T00:03:20.951Z,9.07
2018-12-31T00:08:40.542Z,8.60
2018-12-31T00:14:00.094Z,9.60
2018-12-31T00:19:19.565Z,9.20
2018-12-31T00:24:38.750Z,9.27
2018-12-31T00:29:58.615Z,10.87
2018-12-31T00:35:17.871Z,9.80
2018-12-31T00:40:37.293Z,9.87
2018-12-31T00:45:56.524Z,9.83
2018-12-31T00:51:17.012Z,10.13
2018-12-31T00:56:37.711Z,10.43
2018-12-31T01:01:57.239Z,10.40
2018-12-31T01:07:16.637Z,9.20
2018-12-31T01:12:36.571Z,10.07
2018-12-31T01:17:55.771Z,10.03
2018-12-31T01:23:17.835Z,9.27
2018-12-31T01:28:36.990Z,10.30
2018-12-31T01:33:57.071Z,10.67
2018-12-31T01:39:17.651Z,12.07
2018-12-31T01:44:37.048Z,11.13
2018-12-31T01:49:57.435Z,10.13
2018-12-31T01:55:16.569Z,10.70
2018-12-31T02:00:36.798Z,12.57
2018-12-31T02:05:57.451Z,12.70
2018-12-31T02:11:16.968Z,13.13
2018-12-31T02:16:37.411Z,11.53
2018-12-31T02:21:57.329Z,10.07
2018-12-31T02:27:16.829Z,9.33
2018-12-31T02:32:36.395Z,10.67
2018-12-31T02:37:55.782Z,10.13
2018-12-31T02:43:15.684Z,12.30
2018-12-31T02:48:34.866Z,12.60
2018-12-31T02:53:54.298Z,13.00
2018-12-31T02:59:13.514Z,9.80
2018-12-31T03:04:32.463Z,8.60
2018-12-31T03:09:52.331Z,10.13
2018-12-31T03:15:12.002Z,10.43
2018-12-31T03:20:31.446Z,14.00
2018-12-31T03:25:50.847Z,13.07
2018-12-31T03:31:09.919Z,8.67
2018-12-31T03:36:29.009Z,7.57
2018-12-31T03:41:48.510Z,6.37
2018-12-31T03:47:07.980Z,7.60
2018-12-31T03:52:42.257Z,6.47
2018-12-31T03:58:02.528Z,7.63
2018-12-31T04:03:22.221Z,8.40
2018-12-31T04:08:42.209Z,8.60
2018-12-31T04:14:01.410Z,8.83
2018-12-31T04:19:23.564Z,11.77
2018-12-31T04:24:42.492Z,11.07
2018-12-31T04:30:02.236Z,9.83
2018-12-31T04:35:22.711Z,9.30
2018-12-31T04:57:45.791Z,11.07
2018-12-31T05:03:05.016Z,12.03
2018-12-31T05:08:24.596Z,7.80
2018-12-31T05:13:44.555Z,13.50
2018-12-31T05:19:03.758Z,16.03
2018-12-31T05:24:23.377Z,24.37
2018-12-31T05:29:42.889Z,17.53
